sensor_id;sensor_type;location;lat;lon;timestamp;P1;durP1;ratioP1;P2;durP2;ratioP2
40955;SDS011;26687;48.254;11.454;2023-11-18T00:00:13;3.40;;;3.10;;
40955;SDS011;26687;48.254;11.454;2023-11-18T00:03:16;3.00;;;2.80;;
40955;SDS011;26687;48.254;11.454;2023-11-18T00:06:17;2.63;;;2.42;;
40955;SDS011;26687;48.254;11.454;2023-11-18T00:09:17;3.13;;;2.22;;
40955;SDS011;26687;48.254;11.454;2023-11-18T00:12:17;2.58;;;2.38;;
40955;SDS011;26687;48.254;11.454;2023-11-18T00:15:17;2.47;;;2.27;;
40955;SDS011;26687;48.254;11.454;2023-11-18T00:18:20;2.67;;;2.47;;
40955;SDS011;26687;48.254;11.454;2023-11-18T00:21:20;2.60;;;2.40;;
40955;SDS011;26687;48.254;11.454;2023-11-18T00:24:20;2.60;;;2.40;;
40955;SDS011;26687;48.254;11.454;2023-11-18T00:27:21;3.50;;;2.97;;
40955;SDS011;26687;48.254;11.454;2023-11-18T00:30:22;3.03;;;2.83;;
40955;SDS011;26687;48.254;11.454;2023-11-18T00:33:22;2.67;;;2.47;;
40955;SDS011;26687;48.254;11.454;2023-11-18T00:36:23;2.97;;;2.77;;
40955;SDS011;26687;48.254;11.454;2023-11-18T00:39:23;3.08;;;2.88;;
40955;SDS011;26687;48.254;11.454;2023-11-18T00:42:23;3.40;;;3.10;;
40955;SDS011;26687;48.254;11.454;2023-11-18T00:45:24;2.97;;;2.78;;
40955;SDS011;26687;48.254;11.454;2023-11-18T00:48:24;3.22;;;3.03;;
40955;SDS011;26687;48.254;11.454;2023-11-18T00:51:24;2.88;;;2.67;;
40955;SDS011;26687;48.254;11.454;2023-11-18T00:54:24;3.00;;;2.80;;
40955;SDS011;26687;48.254;11.454;2023-11-18T00:57:25;3.30;;;3.00;;
40955;SDS011;26687;48.254;11.454;2023-11-18T01:00:25;3.17;;;2.97;;
40955;SDS011;26687;48.254;11.454;2023-11-18T01:03:26;2.80;;;2.60;;
40955;SDS011;26687;48.254;11.454;2023-11-18T01:06:26;2.63;;;2.43;;
40955;SDS011;26687;48.254;11.454;2023-11-18T01:09:27;3.03;;;2.80;;
40955;SDS011;26687;48.254;11.454;2023-11-18T01:12:27;2.97;;;2.77;;
40955;SDS011;26687;48.254;11.454;2023-11-18T01:15:27;2.88;;;2.67;;
40955;SDS011;26687;48.254;11.454;2023-11-18T01:18:27;2.50;;;2.30;;
40955;SDS011;26687;48.254;11.454;2023-11-18T01:21:28;2.67;;;2.35;;
40955;SDS011;26687;48.254;11.454;2023-11-18T01:24:28;2.15;;;2.00;;
40955;SDS011;26687;48.254;11.454;2023-11-18T01:27:28;2.20;;;2.10;;
40955;SDS011;26687;48.254;11.454;2023-11-18T01:30:28;2.63;;;2.30;;
40955;SDS011;26687;48.254;11.454;2023-11-18T01:33:28;2.23;;;2.13;;
40955;SDS011;26687;48.254;11.454;2023-11-18T01:36:29;2.35;;;2.17;;
40955;SDS011;26687;48.254;11.454;2023-11-18T01:39:29;2.40;;;2.20;;
40955;SDS011;26687;48.254;11.454;2023-11-18T01:42:29;2.40;;;2.13;;
40955;SDS011;26687;48.254;11.454;2023-11-18T01:45:31;1.95;;;1.85;;
40955;SDS011;26687;48.254;11.454;2023-11-18T01:48:31;1.77;;;1.67;;
40955;SDS011;26687;48.254;11.454;2023-11-18T01:51:33;2.00;;;1.90;;
40955;SDS011;26687;48.254;11.454;2023-11-18T01:54:38;2.20;;;2.00;;
40955;SDS011;26687;48.254;11.454;2023-11-18T01:57:39;2.05;;;1.95;;
40955;SDS011;26687;48.254;11.454;2023-11-18T02:00:43;1.83;;;1.73;;
40955;SDS011;26687;48.254;11.454;2023-11-18T02:03:44;2.10;;;2.00;;
40955;SDS011;26687;48.254;11.454;2023-11-18T02:06:45;2.87;;;1.80;;
40955;SDS011;26687;48.254;11.454;2023-11-18T02:09:45;2.10;;;1.90;;
40955;SDS011;26687;48.254;11.454;2023-11-18T02:12:55;3.00;;;1.93;;
40955;SDS011;26687;48.254;11.454;2023-11-18T02:15:58;2.30;;;2.10;;
40955;SDS011;26687;48.254;11.454;2023-11-18T02:18:58;2.13;;;1.92;;
40955;SDS011;26687;48.254;11.454;2023-11-18T02:21:59;1.60;;;1.50;;
40955;SDS011;26687;48.254;11.454;2023-11-18T02:25:01;1.65;;;1.55;;
40955;SDS011;26687;48.254;11.454;2023-11-18T02:28:01;1.92;;;1.65;;
40955;SDS011;26687;48.254;11.454;2023-11-18T02:31:13;1.63;;;1.52;;
40955;SDS011;26687;48.254;11.454;2023-11-18T02:34:16;2.67;;;2.13;;
40955;SDS011;26687;48.254;11.454;2023-11-18T02:37:17;1.83;;;1.73;;
40955;SDS011;26687;48.254;11.454;2023-11-18T02:40:21;1.77;;;1.60;;
40955;SDS011;26687;48.254;11.454;2023-11-18T02:43:22;2.35;;;1.70;;
40955;SDS011;26687;48.254;11.454;2023-11-18T02:46:24;1.60;;;1.50;;
40955;SDS011;26687;48.254;11.454;2023-11-18T02:52:27;1.92;;;1.70;;
40955;SDS011;26687;48.254;11.454;2023-11-18T02:55:28;1.70;;;1.60;;
40955;SDS011;26687;48.254;11.454;2023-11-18T02:58:31;1.70;;;1.60;;
40955;SDS011;26687;48.254;11.454;2023-11-18T03:01:33;1.60;;;1.50;;
40955;SDS011;26687;48.254;11.454;2023-11-18T03:04:39;1.73;;;1.63;;
40955;SDS011;26687;48.254;11.454;2023-11-18T03:07:42;1.85;;;1.75;;
40955;SDS011;26687;48.254;11.454;2023-11-18T03:10:44;1.77;;;1.67;;
40955;SDS011;26687;48.254;11.454;2023-11-18T03:13:44;1.77;;;1.42;;
40955;SDS011;26687;48.254;11.454;2023-11-18T03:16:46;2.03;;;1.80;;
40955;SDS011;26687;48.254;11.454;2023-11-18T03:19:46;2.10;;;2.00;;
40955;SDS011;26687;48.254;11.454;2023-11-18T03:22:46;1.80;;;1.70;;
40955;SDS011;26687;48.254;11.454;2023-11-18T03:25:47;1.90;;;1.80;;
40955;SDS011;26687;48.254;11.454;2023-11-18T03:28:47;1.90;;;1.80;;
40955;SDS011;26687;48.254;11.454;2023-11-18T03:31:47;1.70;;;1.60;;
40955;SDS011;26687;48.254;11.454;2023-11-18T03:34:48;2.13;;;1.92;;
40955;SDS011;26687;48.254;11.454;2023-11-18T03:37:48;1.52;;;1.42;;
40955;SDS011;26687;48.254;11.454;2023-11-18T03:40:48;1.90;;;1.80;;
40955;SDS011;26687;48.254;11.454;2023-11-18T03:43:49;1.80;;;1.70;;
40955;SDS011;26687;48.254;11.454;2023-11-18T03:46:49;1.80;;;1.70;;
40955;SDS011;26687;48.254;11.454;2023-11-18T03:49:50;1.83;;;1.60;;
40955;SDS011;26687;48.254;11.454;2023-11-18T03:52:50;1.73;;;1.63;;
40955;SDS011;26687;48.254;11.454;2023-11-18T03:55:50;1.80;;;1.70;;
40955;SDS011;26687;48.254;11.454;2023-11-18T03:58:51;2.25;;;1.70;;
40955;SDS011;26687;48.254;11.454;2023-11-18T04:01:52;2.03;;;1.93;;
40955;SDS011;26687;48.254;11.454;2023-11-18T04:04:53;1.98;;;1.88;;
40955;SDS011;26687;48.254;11.454;2023-11-18T04:07:53;1.90;;;1.80;;
40955;SDS011;26687;48.254;11.454;2023-11-18T04:10:53;2.03;;;1.92;;
40955;SDS011;26687;48.254;11.454;2023-11-18T04:13:53;1.87;;;1.77;;
40955;SDS011;26687;48.254;11.454;2023-11-18T04:16:53;2.08;;;1.98;;
40955;SDS011;26687;48.254;11.454;2023-11-18T04:19:55;2.70;;;2.50;;
40955;SDS011;26687;48.254;11.454;2023-11-18T04:22:55;1.92;;;1.83;;
40955;SDS011;26687;48.254;11.454;2023-11-18T04:25:55;2.45;;;2.35;;
40955;SDS011;26687;48.254;11.454;2023-11-18T04:28:57;2.10;;;2.00;;
40955;SDS011;26687;48.254;11.454;2023-11-18T04:31:58;2.58;;;2.38;;
40955;SDS011;26687;48.254;11.454;2023-11-18T04:35:00;2.40;;;2.22;;
40955;SDS011;26687;48.254;11.454;2023-11-18T04:38:06;2.95;;;2.75;;
40955;SDS011;26687;48.254;11.454;2023-11-18T04:41:06;2.50;;;2.30;;
40955;SDS011;26687;48.254;11.454;2023-11-18T04:44:07;2.60;;;2.40;;
40955;SDS011;26687;48.254;11.454;2023-11-18T04:47:07;2.57;;;2.37;;
40955;SDS011;26687;48.254;11.454;2023-11-18T04:50:07;2.47;;;2.33;;
40955;SDS011;26687;48.254;11.454;2023-11-18T04:53:09;2.58;;;2.38;;
40955;SDS011;26687;48.254;11.454;2023-11-18T04:56:10;2.28;;;2.17;;
40955;SDS011;26687;48.254;11.454;2023-11-18T04:59:11;2.60;;;2.40;;
40955;SDS011;26687;48.254;11.454;2023-11-18T05:02:11;2.58;;;2.38;;
40955;SDS011;26687;48.254;11.454;2023-11-18T05:05:11;2.67;;;2.47;;
40955;SDS011;26687;48.254;11.454;2023-11-18T05:08:21;2.70;;;2.50;;
40955;SDS011;26687;48.254;11.454;2023-11-18T05:11:21;2.70;;;2.50;;
40955;SDS011;26687;48.254;11.454;2023-11-18T05:14:21;2.97;;;2.77;;
40955;SDS011;26687;48.254;11.454;2023-11-18T05:17:22;2.70;;;2.50;;
40955;SDS011;26687;48.254;11.454;2023-11-18T05:20:22;2.83;;;2.55;;
40955;SDS011;26687;48.254;11.454;2023-11-18T05:23:23;2.80;;;2.60;;
40955;SDS011;26687;48.254;11.454;2023-11-18T05:26:23;2.75;;;2.55;;
40955;SDS011;26687;48.254;11.454;2023-11-18T05:29:23;2.70;;;2.50;;
40955;SDS011;26687;48.254;11.454;2023-11-18T05:32:23;2.92;;;2.70;;
40955;SDS011;26687;48.254;11.454;2023-11-18T05:35:25;2.65;;;2.45;;
40955;SDS011;26687;48.254;11.454;2023-11-18T05:38:28;2.95;;;2.75;;
40955;SDS011;26687;48.254;11.454;2023-11-18T05:41:32;2.85;;;2.65;;
40955;SDS011;26687;48.254;11.454;2023-11-18T05:44:35;2.70;;;2.50;;
40955;SDS011;26687;48.254;11.454;2023-11-18T05:47:37;2.60;;;2.40;;
40955;SDS011;26687;48.254;11.454;2023-11-18T05:50:37;2.80;;;2.60;;
40955;SDS011;26687;48.254;11.454;2023-11-18T05:53:41;2.65;;;2.45;;
40955;SDS011;26687;48.254;11.454;2023-11-18T05:56:44;3.00;;;2.80;;
40955;SDS011;26687;48.254;11.454;2023-11-18T05:59:44;2.75;;;2.40;;
40955;SDS011;26687;48.254;11.454;2023-11-18T06:02:44;2.70;;;2.50;;
40955;SDS011;26687;48.254;11.454;2023-11-18T06:05:45;3.08;;;2.78;;
40955;SDS011;26687;48.254;11.454;2023-11-18T06:08:45;2.80;;;2.60;;
40955;SDS011;26687;48.254;11.454;2023-11-18T06:11:47;3.33;;;2.50;;
40955;SDS011;26687;48.254;11.454;2023-11-18T06:14:47;2.90;;;2.63;;
40955;SDS011;26687;48.254;11.454;2023-11-18T06:17:48;3.20;;;2.80;;
40955;SDS011;26687;48.254;11.454;2023-11-18T06:20:49;2.90;;;2.70;;
40955;SDS011;26687;48.254;11.454;2023-11-18T06:23:49;2.95;;;2.75;;
40955;SDS011;26687;48.254;11.454;2023-11-18T06:26:49;3.10;;;2.90;;
40955;SDS011;26687;48.254;11.454;2023-11-18T06:29:49;3.10;;;2.90;;
40955;SDS011;26687;48.254;11.454;2023-11-18T06:32:50;3.45;;;3.13;;
40955;SDS011;26687;48.254;11.454;2023-11-18T06:35:50;3.37;;;3.07;;
40955;SDS011;26687;48.254;11.454;2023-11-18T06:38:51;3.05;;;2.85;;
40955;SDS011;26687;48.254;11.454;2023-11-18T06:41:51;2.70;;;2.50;;
40955;SDS011;26687;48.254;11.454;2023-11-18T06:44:51;2.88;;;2.67;;
40955;SDS011;26687;48.254;11.454;2023-11-18T06:47:52;3.05;;;2.85;;
40955;SDS011;26687;48.254;11.454;2023-11-18T06:50:52;3.03;;;2.72;;
40955;SDS011;26687;48.254;11.454;2023-11-18T06:53:53;2.95;;;2.75;;
40955;SDS011;26687;48.254;11.454;2023-11-18T06:56:56;3.13;;;2.92;;
40955;SDS011;26687;48.254;11.454;2023-11-18T06:59:56;2.75;;;2.55;;
40955;SDS011;26687;48.254;11.454;2023-11-18T07:02:56;3.10;;;2.80;;
40955;SDS011;26687;48.254;11.454;2023-11-18T07:05:57;2.80;;;2.60;;
40955;SDS011;26687;48.254;11.454;2023-11-18T07:08:57;3.15;;;2.95;;
40955;SDS011;26687;48.254;11.454;2023-11-18T07:12:00;3.40;;;3.10;;
40955;SDS011;26687;48.254;11.454;2023-11-18T07:15:01;3.20;;;2.92;;
40955;SDS011;26687;48.254;11.454;2023-11-18T07:18:01;3.13;;;2.92;;
40955;SDS011;26687;48.254;11.454;2023-11-18T07:21:02;4.28;;;3.88;;
40955;SDS011;26687;48.254;11.454;2023-11-18T07:24:04;4.03;;;3.67;;
40955;SDS011;26687;48.254;11.454;2023-11-18T07:27:05;4.32;;;3.92;;
40955;SDS011;26687;48.254;11.454;2023-11-18T07:30:05;3.47;;;3.17;;
40955;SDS011;26687;48.254;11.454;2023-11-18T07:33:07;3.38;;;3.08;;
40955;SDS011;26687;48.254;11.454;2023-11-18T07:36:08;3.53;;;3.22;;
40955;SDS011;26687;48.254;11.454;2023-11-18T07:39:11;3.10;;;2.80;;
40955;SDS011;26687;48.254;11.454;2023-11-18T07:42:15;2.80;;;2.60;;
40955;SDS011;26687;48.254;11.454;2023-11-18T07:45:17;3.22;;;3.00;;
40955;SDS011;26687;48.254;11.454;2023-11-18T07:48:18;2.72;;;2.53;;
40955;SDS011;26687;48.254;11.454;2023-11-18T07:51:18;2.92;;;2.72;;
40955;SDS011;26687;48.254;11.454;2023-11-18T07:54:21;2.75;;;2.55;;
40955;SDS011;26687;48.254;11.454;2023-11-18T07:57:22;3.33;;;3.03;;
40955;SDS011;26687;48.254;11.454;2023-11-18T08:00:23;3.40;;;3.10;;
40955;SDS011;26687;48.254;11.454;2023-11-18T08:03:24;3.35;;;3.00;;
40955;SDS011;26687;48.254;11.454;2023-11-18T08:06:24;3.55;;;3.20;;
40955;SDS011;26687;48.254;11.454;2023-11-18T08:09:26;3.50;;;3.20;;
40955;SDS011;26687;48.254;11.454;2023-11-18T08:12:26;4.53;;;3.33;;
40955;SDS011;26687;48.254;11.454;2023-11-18T08:15:26;3.90;;;3.37;;
40955;SDS011;26687;48.254;11.454;2023-11-18T08:18:29;4.47;;;4.00;;
40955;SDS011;26687;48.254;11.454;2023-11-18T08:21:31;5.47;;;3.80;;
40955;SDS011;26687;48.254;11.454;2023-11-18T08:24:31;4.22;;;3.40;;
40955;SDS011;26687;48.254;11.454;2023-11-18T08:27:33;3.58;;;3.28;;
40955;SDS011;26687;48.254;11.454;2023-11-18T08:30:34;3.58;;;3.28;;
40955;SDS011;26687;48.254;11.454;2023-11-18T08:33:34;3.33;;;3.03;;
40955;SDS011;26687;48.254;11.454;2023-11-18T08:36:34;3.28;;;2.90;;
40955;SDS011;26687;48.254;11.454;2023-11-18T08:39:34;3.30;;;3.00;;
40955;SDS011;26687;48.254;11.454;2023-11-18T08:42:35;3.10;;;2.80;;
40955;SDS011;26687;48.254;11.454;2023-11-18T08:45:35;3.90;;;3.50;;
40955;SDS011;26687;48.254;11.454;2023-11-18T08:48:37;2.88;;;2.67;;
40955;SDS011;26687;48.254;11.454;2023-11-18T08:51:37;3.00;;;2.80;;
40955;SDS011;26687;48.254;11.454;2023-11-18T08:54:38;3.03;;;2.83;;
40955;SDS011;26687;48.254;11.454;2023-11-18T08:57:59;3.13;;;2.83;;
40955;SDS011;26687;48.254;11.454;2023-11-18T09:00:59;2.80;;;2.60;;
40955;SDS011;26687;48.254;11.454;2023-11-18T09:07:14;2.08;;;1.98;;
40955;SDS011;26687;48.254;11.454;2023-11-18T09:10:15;2.22;;;1.80;;
40955;SDS011;26687;48.254;11.454;2023-11-18T09:13:17;4.15;;;2.70;;
40955;SDS011;26687;48.254;11.454;2023-11-18T09:16:17;2.05;;;1.73;;
40955;SDS011;26687;48.254;11.454;2023-11-18T09:19:19;2.53;;;2.08;;
40955;SDS011;26687;48.254;11.454;2023-11-18T09:22:21;3.42;;;2.70;;
40955;SDS011;26687;48.254;11.454;2023-11-18T09:25:21;2.50;;;2.30;;
40955;SDS011;26687;48.254;11.454;2023-11-18T09:28:25;3.22;;;2.72;;
40955;SDS011;26687;48.254;11.454;2023-11-18T09:31:28;3.05;;;2.53;;
40955;SDS011;26687;48.254;11.454;2023-11-18T09:34:28;2.78;;;2.55;;
40955;SDS011;26687;48.254;11.454;2023-11-18T09:37:33;3.08;;;2.47;;
40955;SDS011;26687;48.254;11.454;2023-11-18T09:40:33;6.75;;;3.00;;
40955;SDS011;26687;48.254;11.454;2023-11-18T09:43:41;3.35;;;2.60;;
40955;SDS011;26687;48.254;11.454;2023-11-18T09:46:47;5.43;;;2.58;;
40955;SDS011;26687;48.254;11.454;2023-11-18T09:49:56;2.13;;;2.03;;
40955;SDS011;26687;48.254;11.454;2023-11-18T09:52:56;2.55;;;2.35;;
40955;SDS011;26687;48.254;11.454;2023-11-18T09:56:03;3.88;;;2.05;;
40955;SDS011;26687;48.254;11.454;2023-11-18T10:02:19;3.40;;;2.08;;
40955;SDS011;26687;48.254;11.454;2023-11-18T10:05:22;2.13;;;1.93;;
40955;SDS011;26687;48.254;11.454;2023-11-18T10:08:22;2.15;;;1.58;;
40955;SDS011;26687;48.254;11.454;2023-11-18T10:14:26;1.90;;;1.80;;
40955;SDS011;26687;48.254;11.454;2023-11-18T10:17:26;2.65;;;2.00;;
40955;SDS011;26687;48.254;11.454;2023-11-18T10:23:42;1.60;;;1.48;;
40955;SDS011;26687;48.254;11.454;2023-11-18T10:26:58;2.17;;;1.60;;
40955;SDS011;26687;48.254;11.454;2023-11-18T10:30:01;1.47;;;1.37;;
40955;SDS011;26687;48.254;11.454;2023-11-18T10:33:02;1.40;;;1.30;;
40955;SDS011;26687;48.254;11.454;2023-11-18T10:36:06;1.98;;;1.38;;
40955;SDS011;26687;48.254;11.454;2023-11-18T10:39:13;1.75;;;1.42;;
40955;SDS011;26687;48.254;11.454;2023-11-18T10:42:16;1.73;;;1.40;;
40955;SDS011;26687;48.254;11.454;2023-11-18T10:45:26;2.15;;;1.60;;
40955;SDS011;26687;48.254;11.454;2023-11-18T10:48:27;1.20;;;1.10;;
40955;SDS011;26687;48.254;11.454;2023-11-18T10:51:27;1.17;;;0.85;;
40955;SDS011;26687;48.254;11.454;2023-11-18T10:54:30;0.93;;;0.85;;
40955;SDS011;26687;48.254;11.454;2023-11-18T10:57:32;3.45;;;1.20;;
40955;SDS011;26687;48.254;11.454;2023-11-18T11:00:45;1.65;;;1.35;;
40955;SDS011;26687;48.254;11.454;2023-11-18T11:03:53;3.25;;;1.20;;
40955;SDS011;26687;48.254;11.454;2023-11-18T11:06:55;2.03;;;1.10;;
40955;SDS011;26687;48.254;11.454;2023-11-18T11:09:56;3.85;;;1.40;;
40955;SDS011;26687;48.254;11.454;2023-11-18T11:12:57;1.90;;;1.40;;
40955;SDS011;26687;48.254;11.454;2023-11-18T11:16:01;1.60;;;1.30;;
40955;SDS011;26687;48.254;11.454;2023-11-18T11:19:05;1.65;;;1.40;;
40955;SDS011;26687;48.254;11.454;2023-11-18T11:22:08;2.40;;;1.40;;
40955;SDS011;26687;48.254;11.454;2023-11-18T11:25:16;2.80;;;1.50;;
40955;SDS011;26687;48.254;11.454;2023-11-18T11:28:22;1.13;;;1.00;;
40955;SDS011;26687;48.254;11.454;2023-11-18T11:31:41;2.15;;;1.30;;
40955;SDS011;26687;48.254;11.454;2023-11-18T11:34:43;2.75;;;1.40;;
40955;SDS011;26687;48.254;11.454;2023-11-18T11:37:47;1.63;;;1.30;;
40955;SDS011;26687;48.254;11.454;2023-11-18T11:40:48;2.15;;;1.27;;
40955;SDS011;26687;48.254;11.454;2023-11-18T11:43:49;2.92;;;1.63;;
40955;SDS011;26687;48.254;11.454;2023-11-18T11:46:50;1.92;;;1.30;;
40955;SDS011;26687;48.254;11.454;2023-11-18T11:50:01;1.50;;;0.90;;
40955;SDS011;26687;48.254;11.454;2023-11-18T11:53:11;2.10;;;0.80;;
40955;SDS011;26687;48.254;11.454;2023-11-18T11:56:16;3.10;;;0.90;;
40955;SDS011;26687;48.254;11.454;2023-11-18T12:02:48;2.15;;;1.10;;
40955;SDS011;26687;48.254;11.454;2023-11-18T12:05:49;1.73;;;1.40;;
40955;SDS011;26687;48.254;11.454;2023-11-18T12:08:52;1.35;;;1.05;;
40955;SDS011;26687;48.254;11.454;2023-11-18T12:11:52;1.88;;;1.20;;
40955;SDS011;26687;48.254;11.454;2023-11-18T12:14:56;1.30;;;0.90;;
40955;SDS011;26687;48.254;11.454;2023-11-18T12:21:03;2.65;;;2.20;;
40955;SDS011;26687;48.254;11.454;2023-11-18T12:24:16;1.40;;;1.10;;
40955;SDS011;26687;48.254;11.454;2023-11-18T12:27:54;2.30;;;1.70;;
40955;SDS011;26687;48.254;11.454;2023-11-18T12:30:52;1.58;;;1.23;;
40955;SDS011;26687;48.254;11.454;2023-11-18T12:40:41;0.80;;;0.50;;
40955;SDS011;26687;48.254;11.454;2023-11-18T12:43:47;1.30;;;1.00;;
40955;SDS011;26687;48.254;11.454;2023-11-18T12:49:50;0.80;;;0.70;;
40955;SDS011;26687;48.254;11.454;2023-11-18T12:52:54;0.93;;;0.50;;
40955;SDS011;26687;48.254;11.454;2023-11-18T12:55:54;1.23;;;0.60;;
40955;SDS011;26687;48.254;11.454;2023-11-18T12:58:55;2.15;;;0.60;;
40955;SDS011;26687;48.254;11.454;2023-11-18T13:01:56;1.30;;;0.77;;
40955;SDS011;26687;48.254;11.454;2023-11-18T13:05:05;1.02;;;0.65;;
40955;SDS011;26687;48.254;11.454;2023-11-18T13:08:05;1.45;;;0.80;;
40955;SDS011;26687;48.254;11.454;2023-11-18T13:11:05;1.23;;;0.80;;
40955;SDS011;26687;48.254;11.454;2023-11-18T13:14:07;2.65;;;1.13;;
40955;SDS011;26687;48.254;11.454;2023-11-18T13:17:09;2.55;;;1.00;;
40955;SDS011;26687;48.254;11.454;2023-11-18T13:20:12;1.27;;;1.17;;
40955;SDS011;26687;48.254;11.454;2023-11-18T13:23:17;2.38;;;1.00;;
40955;SDS011;26687;48.254;11.454;2023-11-18T13:26:18;1.35;;;1.02;;
40955;SDS011;26687;48.254;11.454;2023-11-18T13:29:19;1.15;;;1.05;;
40955;SDS011;26687;48.254;11.454;2023-11-18T13:32:21;1.67;;;1.10;;
40955;SDS011;26687;48.254;11.454;2023-11-18T13:35:26;1.58;;;1.10;;
40955;SDS011;26687;48.254;11.454;2023-11-18T13:38:27;1.52;;;0.90;;
40955;SDS011;26687;48.254;11.454;2023-11-18T13:41:30;3.75;;;1.80;;
40955;SDS011;26687;48.254;11.454;2023-11-18T13:44:35;2.43;;;1.30;;
40955;SDS011;26687;48.254;11.454;2023-11-18T13:47:35;2.42;;;1.38;;
40955;SDS011;26687;48.254;11.454;2023-11-18T13:50:36;1.60;;;1.27;;
40955;SDS011;26687;48.254;11.454;2023-11-18T13:53:40;1.50;;;1.02;;
40955;SDS011;26687;48.254;11.454;2023-11-18T13:56:41;1.85;;;1.15;;
40955;SDS011;26687;48.254;11.454;2023-11-18T13:59:41;2.00;;;1.23;;
40955;SDS011;26687;48.254;11.454;2023-11-18T14:02:44;2.30;;;1.20;;
40955;SDS011;26687;48.254;11.454;2023-11-18T14:05:50;1.73;;;0.90;;
40955;SDS011;26687;48.254;11.454;2023-11-18T14:08:51;1.17;;;0.75;;
40955;SDS011;26687;48.254;11.454;2023-11-18T14:11:51;2.10;;;0.98;;
40955;SDS011;26687;48.254;11.454;2023-11-18T14:14:52;1.15;;;0.80;;
40955;SDS011;26687;48.254;11.454;2023-11-18T14:17:53;1.38;;;1.00;;
40955;SDS011;26687;48.254;11.454;2023-11-18T14:20:53;2.33;;;0.95;;
40955;SDS011;26687;48.254;11.454;2023-11-18T14:23:53;1.60;;;0.85;;
40955;SDS011;26687;48.254;11.454;2023-11-18T14:26:56;1.95;;;0.82;;
40955;SDS011;26687;48.254;11.454;2023-11-18T14:29:56;1.63;;;1.05;;
40955;SDS011;26687;48.254;11.454;2023-11-18T14:32:58;1.58;;;0.88;;
40955;SDS011;26687;48.254;11.454;2023-11-18T14:36:01;2.10;;;0.90;;
40955;SDS011;26687;48.254;11.454;2023-11-18T14:39:02;1.50;;;0.90;;
40955;SDS011;26687;48.254;11.454;2023-11-18T14:42:03;2.13;;;0.95;;
40955;SDS011;26687;48.254;11.454;2023-11-18T14:45:04;1.23;;;0.90;;
40955;SDS011;26687;48.254;11.454;2023-11-18T14:48:05;1.65;;;1.27;;
40955;SDS011;26687;48.254;11.454;2023-11-18T14:51:05;3.60;;;1.40;;
40955;SDS011;26687;48.254;11.454;2023-11-18T14:54:07;1.50;;;0.70;;
40955;SDS011;26687;48.254;11.454;2023-11-18T14:57:08;3.17;;;0.80;;
40955;SDS011;26687;48.254;11.454;2023-11-18T15:00:09;1.27;;;0.70;;
40955;SDS011;26687;48.254;11.454;2023-11-18T15:03:09;2.40;;;1.10;;
40955;SDS011;26687;48.254;11.454;2023-11-18T15:06:10;1.40;;;0.90;;
40955;SDS011;26687;48.254;11.454;2023-11-18T15:09:11;1.10;;;0.85;;
40955;SDS011;26687;48.254;11.454;2023-11-18T15:12:11;1.07;;;0.67;;
40955;SDS011;26687;48.254;11.454;2023-11-18T15:15:12;1.88;;;0.98;;
40955;SDS011;26687;48.254;11.454;2023-11-18T15:18:18;1.67;;;1.00;;
40955;SDS011;26687;48.254;11.454;2023-11-18T15:21:19;1.10;;;0.90;;
40955;SDS011;26687;48.254;11.454;2023-11-18T15:24:20;2.63;;;1.17;;
40955;SDS011;26687;48.254;11.454;2023-11-18T15:27:20;2.80;;;1.20;;
40955;SDS011;26687;48.254;11.454;2023-11-18T15:30:21;1.60;;;1.15;;
40955;SDS011;26687;48.254;11.454;2023-11-18T15:33:24;1.15;;;0.90;;
40955;SDS011;26687;48.254;11.454;2023-11-18T15:36:24;3.10;;;1.03;;
40955;SDS011;26687;48.254;11.454;2023-11-18T15:39:25;1.45;;;1.00;;
40955;SDS011;26687;48.254;11.454;2023-11-18T15:42:25;1.33;;;1.10;;
40955;SDS011;26687;48.254;11.454;2023-11-18T15:45:25;3.30;;;1.65;;
40955;SDS011;26687;48.254;11.454;2023-11-18T15:48:28;3.22;;;1.75;;
40955;SDS011;26687;48.254;11.454;2023-11-18T15:51:29;2.17;;;1.80;;
40955;SDS011;26687;48.254;11.454;2023-11-18T15:54:30;2.88;;;1.70;;
40955;SDS011;26687;48.254;11.454;2023-11-18T15:57:30;3.10;;;2.20;;
40955;SDS011;26687;48.254;11.454;2023-11-18T16:00:31;2.83;;;2.08;;
40955;SDS011;26687;48.254;11.454;2023-11-18T16:03:31;4.45;;;3.03;;
40955;SDS011;26687;48.254;11.454;2023-11-18T16:06:31;3.90;;;3.20;;
40955;SDS011;26687;48.254;11.454;2023-11-18T16:09:32;4.40;;;3.35;;
40955;SDS011;26687;48.254;11.454;2023-11-18T16:12:32;9.45;;;7.18;;
40955;SDS011;26687;48.254;11.454;2023-11-18T16:15:32;17.52;;;12.82;;
40955;SDS011;26687;48.254;11.454;2023-11-18T16:18:32;14.18;;;11.77;;
40955;SDS011;26687;48.254;11.454;2023-11-18T16:21:36;16.02;;;11.85;;
40955;SDS011;26687;48.254;11.454;2023-11-18T16:24:37;16.08;;;12.20;;
40955;SDS011;26687;48.254;11.454;2023-11-18T16:27:37;8.00;;;6.45;;
40955;SDS011;26687;48.254;11.454;2023-11-18T16:30:38;5.22;;;4.00;;
40955;SDS011;26687;48.254;11.454;2023-11-18T16:33:38;5.75;;;4.20;;
40955;SDS011;26687;48.254;11.454;2023-11-18T16:36:38;3.58;;;3.08;;
40955;SDS011;26687;48.254;11.454;2023-11-18T16:39:39;4.97;;;3.72;;
40955;SDS011;26687;48.254;11.454;2023-11-18T16:42:46;4.90;;;3.72;;
40955;SDS011;26687;48.254;11.454;2023-11-18T16:45:46;4.25;;;3.05;;
40955;SDS011;26687;48.254;11.454;2023-11-18T16:48:47;3.20;;;2.60;;
40955;SDS011;26687;48.254;11.454;2023-11-18T16:51:47;2.90;;;2.60;;
40955;SDS011;26687;48.254;11.454;2023-11-18T16:54:48;3.43;;;2.60;;
40955;SDS011;26687;48.254;11.454;2023-11-18T16:57:48;4.82;;;3.38;;
40955;SDS011;26687;48.254;11.454;2023-11-18T17:00:48;4.03;;;3.63;;
40955;SDS011;26687;48.254;11.454;2023-11-18T17:03:51;6.72;;;5.07;;
40955;SDS011;26687;48.254;11.454;2023-11-18T17:06:51;3.90;;;3.10;;
40955;SDS011;26687;48.254;11.454;2023-11-18T17:09:51;3.78;;;3.38;;
40955;SDS011;26687;48.254;11.454;2023-11-18T17:12:52;4.13;;;3.70;;
40955;SDS011;26687;48.254;11.454;2023-11-18T17:15:52;4.80;;;4.40;;
40955;SDS011;26687;48.254;11.454;2023-11-18T17:18:52;5.65;;;4.78;;
40955;SDS011;26687;48.254;11.454;2023-11-18T17:21:53;5.85;;;5.15;;
40955;SDS011;26687;48.254;11.454;2023-11-18T17:24:53;6.60;;;5.05;;
40955;SDS011;26687;48.254;11.454;2023-11-18T17:27:55;6.05;;;5.40;;
40955;SDS011;26687;48.254;11.454;2023-11-18T17:30:55;6.13;;;5.53;;
40955;SDS011;26687;48.254;11.454;2023-11-18T17:33:55;7.27;;;6.57;;
40955;SDS011;26687;48.254;11.454;2023-11-18T17:36:55;9.63;;;6.95;;
40955;SDS011;26687;48.254;11.454;2023-11-18T17:39:57;7.45;;;6.63;;
40955;SDS011;26687;48.254;11.454;2023-11-18T17:42:57;7.85;;;6.55;;
40955;SDS011;26687;48.254;11.454;2023-11-18T17:45:57;7.33;;;6.57;;
40955;SDS011;26687;48.254;11.454;2023-11-18T17:48:58;7.53;;;6.53;;
40955;SDS011;26687;48.254;11.454;2023-11-18T17:51:58;5.13;;;4.63;;
40955;SDS011;26687;48.254;11.454;2023-11-18T17:54:58;5.57;;;3.67;;
40955;SDS011;26687;48.254;11.454;2023-11-18T17:57:59;3.75;;;3.17;;
40955;SDS011;26687;48.254;11.454;2023-11-18T18:00:59;5.43;;;3.77;;
40955;SDS011;26687;48.254;11.454;2023-11-18T18:04:01;4.45;;;3.67;;
40955;SDS011;26687;48.254;11.454;2023-11-18T18:07:01;6.90;;;5.50;;
40955;SDS011;26687;48.254;11.454;2023-11-18T18:10:01;8.32;;;7.43;;
40955;SDS011;26687;48.254;11.454;2023-11-18T18:13:01;7.95;;;7.03;;
40955;SDS011;26687;48.254;11.454;2023-11-18T18:16:01;7.93;;;6.35;;
40955;SDS011;26687;48.254;11.454;2023-11-18T18:19:03;7.43;;;4.68;;
40955;SDS011;26687;48.254;11.454;2023-11-18T18:22:03;5.63;;;4.47;;
40955;SDS011;26687;48.254;11.454;2023-11-18T18:25:04;4.90;;;4.40;;
40955;SDS011;26687;48.254;11.454;2023-11-18T18:28:04;3.90;;;3.50;;